Time;durP1;ratioP1;P1;durP2;ratioP2;P2;SDS_P1;SDS_P2;PMS_P1;PMS_P2;Temp;Humidity;BMP_temperature;BMP_pressure;BME280_temperature;BME280_humidity;BME280_pressure;Samples;Min_cycle;Max_cycle;Signal;HPM_P1;HPM_P2
2022/09/13 00:01:28;;;;;;;3.00;2.70;;;;;;;23.98;56.93;100800.00;5121522;27;20437;-84
2022/09/13 00:03:53;;;;;;;;;;;;;;;24.22;56.51;100823.13;5099617;28;20089;-83
2022/09/13 00:06:19;;;;;;;2.70;2.50;;;;;;;24.17;55.81;100819.53;5113814;28;19912;-84
2022/09/13 00:08:45;;;;;;;;;;;;;;;24.12;56.32;100818.66;5093071;28;20058;-82
2022/09/13 00:11:22;;;;;;;3.78;2.78;;;;;;;24.16;55.72;100815.13;5116699;27;20300;-82
2022/09/13 00:13:48;;;;;;;2.70;2.50;;;;;;;24.16;55.93;100817.78;5116102;27;20023;-81
2022/09/13 00:16:14;;;;;;;;;;;;;;;24.21;56.05;100825.78;5116915;27;20560;-83
2022/09/13 00:18:41;;;;;;;3.27;2.90;;;;;;;23.96;56.01;100776.00;5089002;28;19912;-83
2022/09/13 00:21:13;;;;;;;;;;;;;;;24.23;56.04;100827.53;5110833;27;20286;-83
2022/09/13 00:23:40;;;;;;;3.00;2.70;;;;;;;24.17;56.14;100827.53;5112745;27;20388;-82
2022/09/13 00:26:09;;;;;;;3.15;2.85;;;;;;;24.22;56.24;100840.91;5111872;28;20557;-82
2022/09/13 00:28:35;;;;;;;3.03;2.72;;;;;;;24.08;55.97;100823.13;5095183;28;20098;-83
2022/09/13 00:31:03;;;;;;;2.80;2.60;;;;;;;24.23;56.35;100848.91;5114537;27;20027;-83
2022/09/13 00:33:29;;;;;;;2.92;2.72;;;;;;;24.14;56.47;100838.25;5062683;28;20032;-82
2022/09/13 00:35:54;;;;;;;;;;;;;;;24.23;56.13;100854.22;5110340;28;20736;-82
2022/09/13 00:38:20;;;;;;;2.97;2.78;;;;;;;24.08;57.07;100822.22;5113165;28;19968;-82
2022/09/13 00:40:45;;;;;;;;;;;;;;;24.25;56.09;100851.56;5115031;27;20031;-83
2022/09/13 00:43:20;;;;;;;3.10;2.80;;;;;;;24.14;56.44;100839.13;5100726;28;19915;-83
2022/09/13 00:45:46;;;;;;;2.75;2.55;;;;;;;24.08;56.38;100839.13;5092166;27;20063;-83
2022/09/13 00:48:21;;;;;;;2.67;2.47;;;;;;;24.23;56.33;100864.03;5095712;28;20503;-83
2022/09/13 00:50:52;;;;;;;3.30;2.67;;;;;;;24.23;56.55;100864.91;5104143;27;20055;-83
2022/09/13 00:53:24;;;;;;;3.92;2.65;;;;;;;24.23;56.17;100874.69;5112149;27;20030;-83
2022/09/13 00:55:51;;;;;;;3.03;2.70;;;;;;;24.22;56.59;100878.28;5112924;28;20042;-82
2022/09/13 00:58:28;;;;;;;2.70;2.50;;;;;;;24.22;56.23;100881.81;5084782;28;20493;-83
2022/09/13 01:00:55;;;;;;;2.70;2.50;;;;;;;24.22;56.13;100878.28;5095291;28;20038;-83
2022/09/13 01:03:21;;;;;;;3.25;2.58;;;;;;;24.19;56.52;100879.13;5105475;28;20485;-82
2022/09/13 01:06:11;;;;;;;2.90;2.60;;;;;;;24.19;56.76;100873.81;5092044;28;20617;-82
2022/09/13 01:08:39;;;;;;;3.88;2.47;;;;;;;24.15;56.43;100872.94;5094756;28;20023;-82
2022/09/13 01:11:05;;;;;;;3.80;2.33;;;;;;;24.18;56.39;100880.03;5098612;28;20028;-83
2022/09/13 01:13:33;;;;;;;2.65;2.45;;;;;;;24.19;55.72;100871.13;5079049;28;20067;-83
2022/09/13 01:15:59;;;;;;;2.60;2.40;;;;;;;24.17;56.72;100872.91;5095951;28;20484;-83
2022/09/13 01:18:25;;;;;;;2.30;2.17;;;;;;;23.83;56.13;100811.56;5114990;27;20073;-83
2022/09/13 01:21:11;;;;;;;;;;;;;;;24.20;56.60;100858.69;5090404;28;20446;-83
2022/09/13 01:23:55;;;;;;;2.40;2.20;;;;;;;24.17;56.24;100883.59;5111685;27;19911;-83
2022/09/13 01:26:48;;;;;;;2.38;2.17;;;;;;;24.14;56.12;100883.59;5108016;27;20023;-83
2022/09/13 01:29:40;;;;;;;2.45;2.25;;;;;;;24.14;56.41;100888.94;5090510;27;20084;-82
2022/09/13 01:32:27;;;;;;;2.30;2.10;;;;;;;24.14;56.29;100889.81;5120175;27;20027;-83
2022/09/13 01:35:23;;;;;;;2.50;2.30;;;;;;;24.06;56.75;100888.03;5093058;28;20100;-82
2022/09/13 01:38:05;;;;;;;3.15;2.17;;;;;;;23.99;56.09;100860.47;5090058;28;20042;-82
2022/09/13 01:40:48;;;;;;;2.92;2.33;;;;;;;24.09;56.74;100870.25;5115473;27;20099;-82
2022/09/13 01:44:06;;;;;;;2.35;2.15;;;;;;;24.08;56.23;100872.91;5087313;28;20055;-82
2022/09/13 01:46:54;;;;;;;2.53;2.33;;;;;;;23.95;56.52;100861.34;5053772;28;20118;-84
2022/09/13 01:49:28;;;;;;;2.40;2.20;;;;;;;23.95;56.30;100878.25;5091826;28;20038;-84
2022/09/13 01:52:20;;;;;;;2.50;2.30;;;;;;;23.97;56.86;100897.81;5093904;28;20073;-83
2022/09/13 01:54:49;;;;;;;2.42;2.22;;;;;;;24.05;56.51;100900.50;5056296;28;20039;-85
2022/09/13 01:57:18;;;;;;;2.95;2.15;;;;;;;24.04;56.97;100903.16;5111432;28;20027;-83
2022/09/13 01:59:44;;;;;;;2.80;2.05;;;;;;;24.01;56.81;100903.16;5098545;28;20019;-84
2022/09/13 02:02:41;;;;;;;;;;;;;;;24.08;56.54;100916.50;5100425;28;20027;-82
2022/09/13 02:05:35;;;;;;;3.05;2.47;;;;;;;24.08;56.39;100904.94;5070269;28;19912;-84
2022/09/13 02:08:31;;;;;;;2.88;2.40;;;;;;;23.98;56.57;100899.59;5090110;28;20401;-83
2022/09/13 02:11:07;;;;;;;2.25;2.10;;;;;;;23.97;56.69;100892.47;5085328;27;20417;-83
2022/09/13 02:13:40;;;;;;;2.28;1.90;;;;;;;23.86;56.20;100867.56;5078239;28;20106;-83
2022/09/13 02:16:17;;;;;;;3.20;2.30;;;;;;;24.06;56.42;100904.03;5088979;28;20028;-83
2022/09/13 02:18:46;;;;;;;2.55;2.35;;;;;;;24.02;56.49;100894.25;5079414;28;20408;-83
2022/09/13 02:21:19;;;;;;;2.83;1.95;;;;;;;24.06;56.55;100901.38;5111069;27;20023;-83
2022/09/13 02:23:51;;;;;;;4.45;2.20;;;;;;;23.99;56.29;100887.16;5118422;27;20039;-83
2022/09/13 02:26:17;;;;;;;2.47;1.95;;;;;;;23.93;56.10;100877.34;5090529;27;20019;-83
2022/09/13 02:28:52;;;;;;;3.45;2.10;;;;;;;24.03;56.63;100896.06;5113458;27;20084;-83
2022/09/13 02:31:49;;;;;;;2.08;1.98;;;;;;;23.97;56.87;100889.81;5092913;28;20524;-83
2022/09/13 02:34:19;;;;;;;3.72;2.30;;;;;;;24.02;56.68;100897.81;5089555;28;20122;-83
2022/09/13 02:36:45;;;;;;;2.35;2.15;;;;;;;23.87;57.08;100896.00;5109406;28;20040;-83
2022/09/13 02:39:13;;;;;;;2.33;1.90;;;;;;;23.93;56.71;100904.03;5091919;28;20023;-83
2022/09/13 02:41:56;;;;;;;2.40;2.20;;;;;;;23.99;56.54;100903.16;5092015;28;20106;-83
2022/09/13 02:44:33;;;;;;;3.00;2.20;;;;;;;24.01;56.71;100903.16;5099840;28;20439;-83
2022/09/13 02:47:01;;;;;;;;;;;;;;;24.01;57.09;100901.38;5092978;28;20037;-83
2022/09/13 02:49:50;;;;;;;3.65;2.00;;;;;;;23.83;56.77;100869.34;5088118;28;19911;-83
2022/09/13 02:52:55;;;;;;;2.42;2.22;;;;;;;23.98;56.63;100898.69;5109473;28;20440;-83
2022/09/13 02:55:43;;;;;;;2.90;2.03;;;;;;;24.02;56.54;100897.81;5092209;28;20023;-83
2022/09/13 02:58:13;;;;;;;2.35;2.03;;;;;;;23.92;56.60;100880.94;5101740;28;20038;-83
2022/09/13 03:00:39;;;;;;;2.45;2.25;;;;;;;23.97;56.63;100895.13;5120674;27;20016;-82
2022/09/13 03:03:08;;;;;;;3.35;2.10;;;;;;;24.00;56.69;100894.25;5083154;28;20071;-83
2022/09/13 03:05:34;;;;;;;3.30;2.00;;;;;;;23.96;57.18;100898.72;5110057;28;20474;-83
2022/09/13 03:07:59;;;;;;;;;;;;;;;24.00;56.95;100896.03;5085605;28;20550;-83
2022/09/13 03:10:30;;;;;;;3.80;2.30;;;;;;;23.76;57.62;100868.44;5106328;28;19919;-82
2022/09/13 03:13:17;;;;;;;2.20;2.00;;;;;;;23.87;57.43;100893.34;5073688;28;20032;-82
2022/09/13 03:16:02;;;;;;;2.20;2.00;;;;;;;23.84;57.48;100892.47;5094141;28;20027;-83
2022/09/13 03:18:46;;;;;;;3.38;2.20;;;;;;;23.86;57.21;100890.69;5093118;28;20028;-82
2022/09/13 03:21:32;;;;;;;2.70;2.00;;;;;;;23.84;57.13;100897.81;5096796;28;20632;-83
2022/09/13 03:23:57;;;;;;;2.40;2.20;;;;;;;23.79;57.39;100897.78;5110439;28;20122;-82
2022/09/13 03:26:46;;;;;;;;;;;;;;;23.91;57.19;100900.47;5105859;28;20591;-82
2022/09/13 03:29:30;;;;;;;3.35;2.03;;;;;;;23.86;57.45;100902.25;5092707;28;19911;-82
2022/09/13 03:32:05;;;;;;;2.20;2.00;;;;;;;23.89;56.96;100914.69;5107223;28;20511;-85
2022/09/13 03:34:33;;;;;;;3.08;2.20;;;;;;;23.89;57.10;100904.03;5082162;28;20067;-85
2022/09/13 03:37:25;;;;;;;2.95;2.20;;;;;;;23.84;57.67;100909.34;5088220;28;20044;-84
2022/09/13 03:40:08;;;;;;;3.50;2.13;;;;;;;23.90;57.39;100908.50;5109338;28;20043;-84
2022/09/13 03:42:40;;;;;;;1.98;1.88;;;;;;;23.85;57.33;100908.47;5100443;28;20107;-84
2022/09/13 03:45:07;;;;;;;2.38;2.17;;;;;;;23.85;57.15;100913.78;5106321;28;20042;-84
2022/09/13 03:47:35;;;;;;;2.83;2.05;;;;;;;23.86;56.96;100912.03;5106878;28;20099;-84
2022/09/13 03:50:01;;;;;;;2.25;1.85;;;;;;;23.73;56.91;100887.09;5087752;28;20038;-84
2022/09/13 03:52:27;;;;;;;2.45;2.25;;;;;;;23.46;57.53;100856.81;5084674;28;20035;-82
2022/09/13 03:54:53;;;;;;;;;;;;;;;23.86;57.33;100910.25;5094306;28;20417;-82
2022/09/13 03:57:20;;;;;;;3.00;2.13;;;;;;;23.80;57.26;100906.69;5107632;28;19930;-83
2022/09/13 03:59:48;;;;;;;2.47;1.90;;;;;;;23.65;57.45;100892.41;5105686;28;20046;-83
2022/09/13 04:02:15;;;;;;;2.92;1.98;;;;;;;23.77;57.31;100896.91;5112043;28;20169;-82
2022/09/13 04:04:41;;;;;;;8.00;2.30;;;;;;;23.83;57.40;100914.69;5096030;28;20032;-82
2022/09/13 04:07:09;;;;;;;2.30;2.10;;;;;;;23.81;57.98;100919.13;5094234;28;20026;-82
2022/09/13 04:09:35;;;;;;;2.33;2.00;;;;;;;23.84;57.32;100921.81;5105647;28;20042;-81
2022/09/13 04:12:01;;;;;;;;;;;;;;;23.84;57.88;100925.34;5079512;28;20048;-83
2022/09/13 04:14:27;;;;;;;4.65;2.10;;;;;;;23.66;57.28;100903.94;5112757;28;20376;-83
2022/09/13 04:16:53;;;;;;;;;;;;;;;23.84;57.69;100936.03;5116655;27;20059;-83
2022/09/13 04:19:19;;;;;;;2.10;1.90;;;;;;;23.66;58.35;100919.94;5102087;28;19916;-83
2022/09/13 04:21:47;;;;;;;1.98;1.88;;;;;;;23.62;57.56;100911.06;5106699;27;20025;-83
2022/09/13 04:24:14;;;;;;;2.63;2.42;;;;;;;23.66;57.39;100911.94;5081508;27;20084;-83
2022/09/13 04:26:39;;;;;;;;;;;;;;;23.84;57.39;100941.38;5123615;27;20024;-83
2022/09/13 04:29:05;;;;;;;2.28;2.15;;;;;;;23.77;57.91;100940.47;5106867;27;19994;-83
2022/09/13 04:31:30;;;;;;;;;;;;;;;23.84;57.92;100941.38;5134974;27;20061;-83
2022/09/13 04:33:56;;;;;;;2.20;2.00;;;;;;;23.79;58.27;100948.44;5118987;27;20002;-84
2022/09/13 04:36:21;;;;;;;;;;;;;;;23.82;57.55;100948.47;5114721;27;20046;-83
2022/09/13 04:38:48;;;;;;;2.00;1.83;;;;;;;23.62;57.96;100928.81;5105577;27;19915;-83
2022/09/13 04:41:15;;;;;;;2.33;2.13;;;;;;;23.49;57.55;100901.22;5112997;27;20027;-83
2022/09/13 04:43:41;;;;;;;2.00;1.90;;;;;;;23.76;57.87;100952.00;5109276;27;20020;-84
2022/09/13 04:46:06;;;;;;;;;;;;;;;23.71;57.84;100955.53;5113256;28;20545;-84
2022/09/13 04:48:33;;;;;;;2.28;2.08;;;;;;;23.67;57.79;100943.06;5091961;28;19916;-84
2022/09/13 04:51:03;;;;;;;2.75;2.30;;;;;;;23.72;57.96;100952.84;5102417;28;20056;-85
2022/09/13 04:53:29;;;;;;;2.00;1.90;;;;;;;23.75;57.67;100960.00;5092442;28;20119;-84
2022/09/13 04:56:03;;;;;;;2.20;2.08;;;;;;;23.18;58.25;100869.16;5111577;28;20031;-83
2022/09/13 04:58:28;;;;;;;2.28;2.08;;;;;;;23.68;57.75;100952.84;5082763;28;20027;-84
2022/09/13 05:00:59;;;;;;;;;;;;;;;23.75;57.56;100960.00;5112997;27;20023;-86
2022/09/13 05:03:25;;;;;;;2.38;2.17;;;;;;;23.68;57.75;100958.16;5105903;28;19968;-84
2022/09/13 05:05:50;;;;;;;;;;;;;;;23.74;58.11;100955.53;5102142;27;20015;-89
2022/09/13 05:08:16;;;;;;;3.30;2.50;;;;;;;23.64;57.66;100959.91;5095442;28;19919;-88
2022/09/13 05:10:41;;;;;;;;;;;;;;;23.64;58.30;100959.03;5107032;27;20477;-88
2022/09/13 05:13:07;;;;;;;4.00;2.33;;;;;;;23.62;58.05;100956.41;5088217;28;20027;-86
2022/09/13 05:15:32;;;;;;;;;;;;;;;23.66;58.15;100954.59;5112632;28;20027;-85
2022/09/13 05:17:58;;;;;;;2.40;2.20;;;;;;;23.49;57.98;100944.75;5110757;28;19926;-84
2022/09/13 05:20:23;;;;;;;;;;;;;;;23.68;57.63;100958.16;5084552;28;20081;-85
2022/09/13 05:22:49;;;;;;;2.53;2.08;;;;;;;23.60;57.47;100947.50;5109135;27;19915;-85
2022/09/13 05:25:15;;;;;;;;;;;;;;;23.70;57.61;100967.94;5096889;27;20024;-86
2022/09/13 05:27:40;;;;;;;3.17;2.38;;;;;;;23.63;57.65;100973.28;5113441;28;19946;-86
2022/09/13 05:30:06;;;;;;;;;;;;;;;23.68;57.89;100966.16;5116246;27;20069;-84
2022/09/13 05:32:31;;;;;;;2.63;2.15;;;;;;;23.64;57.90;100965.25;5116521;27;19911;-84
2022/09/13 05:35:02;;;;;;;2.35;2.15;;;;;;;23.61;57.76;100962.59;5074988;28;20032;-88
2022/09/13 05:37:28;;;;;;;2.47;2.28;;;;;;;23.57;57.96;100958.13;5120003;27;20129;-86
2022/09/13 05:39:54;;;;;;;;;;;;;;;23.59;58.20;100959.03;5101247;28;20030;-86
2022/09/13 05:42:22;;;;;;;2.45;2.20;;;;;;;23.52;57.72;100954.56;5072584;28;20373;-87
2022/09/13 05:44:48;;;;;;;2.40;2.20;;;;;;;23.17;58.24;100899.34;5095076;28;20754;-87
2022/09/13 05:47:14;;;;;;;;;;;;;;;23.55;58.08;100970.56;5104424;28;20085;-85
2022/09/13 05:49:40;;;;;;;2.13;1.90;;;;;;;23.48;57.80;100969.66;5081933;28;19912;-86
2022/09/13 05:52:05;;;;;;;;;;;;;;;23.63;57.86;100976.81;5060315;27;20027;-87
2022/09/13 05:54:33;;;;;;;2.60;2.40;;;;;;;23.30;58.02;100934.91;5083154;28;19960;-89
2022/09/13 05:56:58;;;;;;;2.67;2.30;;;;;;;23.44;57.82;100949.19;5075387;28;20038;-87
2022/09/13 05:59:24;;;;;;;;;;;;;;;23.63;58.12;100976.81;5089062;28;20412;-88
2022/09/13 06:01:59;;;;;;;2.22;2.00;;;;;;;23.10;57.80;100893.09;5112649;27;20003;-87
2022/09/13 06:04:24;;;;;;;2.30;2.10;;;;;;;23.60;58.13;100978.56;5088504;28;20024;-82
2022/09/13 06:06:53;;;;;;;;;;;;;;;23.56;58.00;100977.69;5103274;28;20503;-82
2022/09/13 06:09:18;;;;;;;2.33;2.08;;;;;;;23.15;57.99;100928.63;5093628;27;19933;-82
2022/09/13 06:11:45;;;;;;;;;;;;;;;23.52;58.11;100976.78;5091818;28;20470;-82
2022/09/13 06:14:12;;;;;;;2.47;2.10;;;;;;;23.25;58.27;100929.56;5101058;28;19923;-82
2022/09/13 06:16:37;;;;;;;2.88;2.10;;;;;;;23.23;58.16;100923.34;5095221;28;20073;-82
2022/09/13 06:19:03;;;;;;;;;;;;;;;23.55;58.10;100978.56;5105076;27;20028;-82
2022/09/13 06:21:28;;;;;;;2.13;1.92;;;;;;;23.19;57.87;100902.03;5098909;27;19912;-81
2022/09/13 06:23:54;;;;;;;;;;;;;;;23.56;57.92;100977.69;5107358;27;20023;-81
2022/09/13 06:26:28;;;;;;;2.70;2.05;;;;;;;23.24;58.21;100934.88;5109715;27;20070;-83
2022/09/13 06:28:56;;;;;;;2.80;2.20;;;;;;;23.28;57.85;100931.34;5106491;28;20063;-82
2022/09/13 06:31:25;;;;;;;2.42;2.10;;;;;;;23.48;58.25;100979.44;5073521;28;20173;-81
2022/09/13 06:34:03;;;;;;;2.15;1.95;;;;;;;22.91;57.73;100868.13;5079431;28;20027;-81
2022/09/13 06:36:31;;;;;;;3.30;2.42;;;;;;;22.84;58.22;100881.38;5110956;28;20059;-81
2022/09/13 06:39:07;;;;;;;2.40;2.13;;;;;;;23.08;57.52;100899.31;5103027;28;20023;-80
2022/09/13 06:41:33;;;;;;;2.60;2.40;;;;;;;23.51;58.02;100988.31;5111594;28;20032;-80
2022/09/13 06:44:00;;;;;;;2.42;2.15;;;;;;;23.30;58.58;100983.78;5074680;28;20038;-80
2022/09/13 06:46:30;;;;;;;2.35;2.15;;;;;;;23.40;57.88;100973.19;5071990;28;20021;-81
2022/09/13 06:49:03;;;;;;;2.40;2.20;;;;;;;23.15;58.31;100949.06;5090586;28;20069;-81
2022/09/13 06:51:39;;;;;;;2.47;2.22;;;;;;;23.24;58.28;100983.78;5100761;28;20039;-81
2022/09/13 06:54:05;;;;;;;2.50;2.30;;;;;;;22.81;58.45;100902.69;5085473;28;20090;-81
2022/09/13 06:56:34;;;;;;;;;;;;;;;23.31;58.47;101004.22;5108625;28;20521;-81
2022/09/13 06:59:03;;;;;;;2.40;2.20;;;;;;;22.89;57.88;100911.59;5093373;28;20288;-79
2022/09/13 07:01:34;;;;;;;2.35;2.15;;;;;;;23.17;57.44;100947.28;5094553;28;20188;-80
2022/09/13 07:04:03;;;;;;;2.92;2.38;;;;;;;22.88;58.39;100907.16;5110422;28;20022;-80
2022/09/13 07:06:37;;;;;;;2.30;2.10;;;;;;;23.20;58.30;100960.66;5093625;28;20019;-80
2022/09/13 07:09:05;;;;;;;3.65;2.17;;;;;;;23.23;58.22;100968.66;5111710;28;20023;-79
2022/09/13 07:11:35;;;;;;;2.75;2.53;;;;;;;23.46;57.75;101006.06;5105041;28;20073;-82
2022/09/13 07:14:01;;;;;;;2.70;2.22;;;;;;;23.17;58.01;100965.94;5113798;28;20015;-81
2022/09/13 07:16:27;;;;;;;;;;;;;;;23.50;57.89;101015.00;5117054;28;20033;-81
2022/09/13 07:18:57;;;;;;;2.15;2.00;;;;;;;23.52;57.80;101008.78;5123386;28;19946;-81
2022/09/13 07:21:23;;;;;;;2.40;2.20;;;;;;;23.56;57.79;101004.34;5106844;28;20050;-80
2022/09/13 07:23:48;;;;;;;;;;;;;;;23.45;58.20;101009.63;5115747;28;20062;-80
2022/09/13 07:26:14;;;;;;;2.33;2.13;;;;;;;23.44;58.15;101013.16;5113472;28;20374;-80
2022/09/13 07:28:40;;;;;;;;;;;;;;;23.49;58.38;101013.19;5117861;28;20036;-81
2022/09/13 07:31:06;;;;;;;3.72;2.33;;;;;;;23.45;58.53;101014.97;5077394;28;19942;-80
2022/09/13 07:33:32;;;;;;;2.58;2.30;;;;;;;23.34;58.10;100990.91;5089280;28;21492;-81
2022/09/13 07:36:00;;;;;;;2.10;1.85;;;;;;;23.41;58.44;101009.59;5115998;27;20027;-81
2022/09/13 07:38:26;;;;;;;2.47;2.10;;;;;;;23.35;58.22;101008.69;5117854;27;20027;-83
2022/09/13 07:40:57;;;;;;;;;;;;;;;23.45;58.09;101011.38;5081607;28;20024;-82
2022/09/13 07:43:25;;;;;;;2.85;2.25;;;;;;;23.48;58.20;101016.75;5112872;27;20416;-81
2022/09/13 07:45:58;;;;;;;2.22;2.03;;;;;;;23.36;58.33;100993.59;5089133;28;20050;-81
2022/09/13 07:48:26;;;;;;;3.60;2.25;;;;;;;23.37;58.14;101006.94;5088746;28;20248;-81
2022/09/13 07:51:02;;;;;;;2.53;2.10;;;;;;;23.41;58.30;101020.25;5096765;28;20089;-81
2022/09/13 07:53:29;;;;;;;2.35;2.10;;;;;;;23.30;57.64;100998.88;5098242;27;20031;-80
2022/09/13 07:56:04;;;;;;;3.58;1.90;;;;;;;23.27;58.65;101002.41;5104805;27;20031;-80
2022/09/13 07:58:31;;;;;;;2.45;2.25;;;;;;;23.40;58.59;101019.38;5106201;28;20570;-81
2022/09/13 08:01:12;;;;;;;2.20;2.00;;;;;;;23.36;58.48;101005.13;5097348;27;20623;-81
2022/09/13 08:03:38;;;;;;;2.45;2.13;;;;;;;23.43;58.37;101007.81;5094537;28;20031;-81
2022/09/13 08:06:04;;;;;;;;;;;;;;;23.40;58.55;101010.50;5103004;27;20023;-81
2022/09/13 08:08:30;;;;;;;2.20;2.10;;;;;;;23.42;58.53;101009.59;5095901;28;19918;-81
2022/09/13 08:10:55;;;;;;;;;;;;;;;23.41;58.16;101012.25;5113898;27;20028;-80
2022/09/13 08:13:22;;;;;;;2.38;2.17;;;;;;;23.32;58.36;101002.44;5102739;28;19926;-80
2022/09/13 08:15:48;;;;;;;2.15;1.95;;;;;;;23.40;58.31;101013.16;5104972;28;20031;-80
2022/09/13 08:18:17;;;;;;;2.60;2.03;;;;;;;23.40;58.36;101016.69;5121865;27;20056;-81
2022/09/13 08:20:43;;;;;;;2.08;1.95;;;;;;;23.36;58.39;101012.22;5098442;27;20122;-80
2022/09/13 08:23:11;;;;;;;;;;;;;;;23.40;58.24;101011.38;5100831;28;20102;-80
2022/09/13 08:25:37;;;;;;;2.13;1.90;;;;;;;23.26;58.37;100990.00;5105123;28;19912;-80
2022/09/13 08:28:14;;;;;;;2.45;2.10;;;;;;;23.37;58.14;101006.03;5121389;27;20584;-80
2022/09/13 08:30:41;;;;;;;2.08;1.98;;;;;;;23.31;58.49;100998.00;5134042;27;20027;-80
2022/09/13 08:33:07;;;;;;;2.17;1.90;;;;;;;23.35;58.34;101007.81;5109566;27;20031;-80
2022/09/13 08:35:32;;;;;;;;;;;;;;;23.41;58.30;101007.84;5092635;28;20085;-80
2022/09/13 08:37:59;;;;;;;2.10;1.90;;;;;;;23.38;58.30;101005.13;5112712;27;19919;-80
2022/09/13 08:40:27;;;;;;;2.40;1.90;;;;;;;23.34;58.10;100993.56;5111372;27;20458;-80
2022/09/13 08:42:57;;;;;;;3.05;2.25;;;;;;;23.36;58.22;101001.56;5105878;27;20034;-79
2022/09/13 08:45:23;;;;;;;2.10;1.95;;;;;;;23.35;58.27;100991.81;5107458;28;20034;-80
2022/09/13 08:47:51;;;;;;;;;;;;;;;23.38;58.17;100998.03;5123181;27;20028;-79
2022/09/13 08:50:21;;;;;;;2.10;1.90;;;;;;;23.30;58.41;100986.44;5111782;27;19920;-79
2022/09/13 08:53:21;;;;;;;2.30;1.83;;;;;;;23.39;58.18;101004.28;5104167;27;20035;-80
2022/09/13 08:56:06;;;;;;;2.45;1.67;;;;;;;23.32;58.11;100986.44;5119318;27;20042;-79
2022/09/13 08:58:31;;;;;;;2.10;2.00;;;;;;;23.38;57.95;101002.47;5128048;27;20504;-79
2022/09/13 09:00:58;;;;;;;;;;;;;;;23.42;58.17;101003.41;5124815;27;20102;-80
2022/09/13 09:03:30;;;;;;;2.17;1.73;;;;;;;23.41;58.08;100996.25;5119611;27;20387;-80
2022/09/13 09:05:55;;;;;;;1.90;1.70;;;;;;;23.32;58.11;100987.34;5116252;27;20476;-80
2022/09/13 09:08:27;;;;;;;;;;;;;;;23.41;57.92;101001.59;5115493;27;20037;-80
2022/09/13 09:10:54;;;;;;;1.90;1.80;;;;;;;23.36;58.11;100996.25;5103079;28;19914;-80
2022/09/13 09:13:55;;;;;;;3.08;1.90;;;;;;;23.41;58.14;100999.84;5103288;28;20102;-80
2022/09/13 09:16:36;;;;;;;1.63;1.52;;;;;;;23.31;58.63;100988.22;5104400;28;20469;-81
2022/09/13 09:19:39;;;;;;;2.10;1.63;;;;;;;23.38;58.31;100987.38;5103333;27;20023;-80
2022/09/13 09:22:17;;;;;;;2.25;1.80;;;;;;;23.17;58.66;100945.50;5078730;28;20414;-79
2022/09/13 09:24:45;;;;;;;2.05;1.75;;;;;;;23.44;58.62;100989.19;5095901;28;20027;-80
2022/09/13 09:27:16;;;;;;;2.05;1.85;;;;;;;23.43;57.96;100970.50;5123214;27;20023;-80
2022/09/13 09:29:45;;;;;;;2.17;2.00;;;;;;;23.42;58.53;100974.06;5100530;27;20030;-79
2022/09/13 09:32:48;;;;;;;5.35;1.70;;;;;;;23.43;58.19;100981.16;5132617;27;20094;-80
2022/09/13 09:35:41;;;;;;;2.10;1.90;;;;;;;23.42;58.45;100976.75;5109737;27;20103;-80
2022/09/13 09:38:36;;;;;;;1.88;1.77;;;;;;;23.42;58.39;100982.94;5126948;27;20573;-80
2022/09/13 09:41:12;;;;;;;1.90;1.80;;;;;;;23.40;58.77;100989.16;5082180;28;20043;-80
2022/09/13 09:43:44;;;;;;;2.70;1.80;;;;;;;23.32;58.45;100970.47;5108210;28;20506;-80
2022/09/13 09:46:11;;;;;;;1.80;1.70;;;;;;;23.40;58.64;100987.38;5091962;28;20034;-81
2022/09/13 09:48:45;;;;;;;1.83;1.63;;;;;;;23.40;58.36;100984.72;5089749;27;20100;-80
2022/09/13 09:51:12;;;;;;;2.00;1.80;;;;;;;23.43;58.14;100984.75;5096351;27;20058;-80
2022/09/13 09:53:46;;;;;;;2.00;1.90;;;;;;;23.33;58.39;100978.47;5083265;27;20039;-80
2022/09/13 09:56:22;;;;;;;1.75;1.65;;;;;;;23.33;58.54;100972.25;5098746;27;20094;-80
2022/09/13 09:58:48;;;;;;;1.95;1.75;;;;;;;23.25;58.46;100953.56;5112603;27;20020;-81
2022/09/13 10:01:14;;;;;;;;;;;;;;;23.39;58.30;100982.94;5111454;27;20589;-81
2022/09/13 10:03:40;;;;;;;2.08;1.60;;;;;;;23.37;58.65;100988.25;5096831;27;20458;-80
2022/09/13 10:06:10;;;;;;;;;;;;;;;23.41;58.62;100973.19;5099249;27;20119;-80
2022/09/13 10:08:38;;;;;;;3.03;1.65;;;;;;;23.37;58.76;100968.72;5079973;28;19955;-80
2022/09/13 10:11:05;;;;;;;1.88;1.70;;;;;;;23.40;58.34;100978.50;5093119;27;20027;-80
2022/09/13 10:13:39;;;;;;;2.60;1.80;;;;;;;23.31;58.51;100963.38;5064426;28;20025;-80
2022/09/13 10:16:28;;;;;;;1.95;1.83;;;;;;;23.42;58.54;100977.63;5082346;28;20029;-80
2022/09/13 10:19:23;;;;;;;1.90;1.80;;;;;;;23.44;58.40;100980.31;5062504;28;20126;-79
2022/09/13 10:22:13;;;;;;;2.00;1.90;;;;;;;22.74;58.74;100859.16;5070222;28;20459;-79
2022/09/13 10:24:39;;;;;;;1.80;1.70;;;;;;;23.03;58.53;100903.72;5087373;28;20035;-80
2022/09/13 10:27:05;;;;;;;;;;;;;;;23.45;58.75;100982.97;5094422;28;20028;-79
2022/09/13 10:29:31;;;;;;;2.10;1.90;;;;;;;23.12;58.72;100930.41;5098019;28;20383;-80
2022/09/13 10:31:57;;;;;;;;;;;;;;;23.46;58.69;100984.75;5122496;27;20487;-84
2022/09/13 10:34:29;;;;;;;1.98;1.77;;;;;;;23.46;58.80;100984.75;5092986;28;20014;-85
2022/09/13 10:36:55;;;;;;;3.20;2.03;;;;;;;23.46;58.70;100978.53;5084427;28;20084;-82
2022/09/13 10:39:21;;;;;;;;;;;;;;;23.46;58.42;100978.53;5095444;28;20078;-81
2022/09/13 10:41:49;;;;;;;2.17;1.98;;;;;;;23.43;58.76;100978.50;5059418;28;20456;-83
2022/09/13 10:44:27;;;;;;;;;;;;;;;23.43;58.41;100976.75;5090332;28;20067;-84
2022/09/13 10:46:53;;;;;;;1.88;1.70;;;;;;;23.25;58.83;100942.91;5083807;28;20462;-86
2022/09/13 10:49:35;;;;;;;;;;;;;;;23.43;58.89;100978.50;5077140;28;20081;-83
2022/09/13 10:52:01;;;;;;;1.80;1.70;;;;;;;23.41;58.61;100970.53;5094739;28;20438;-86
2022/09/13 10:54:26;;;;;;;;;;;;;;;23.44;58.89;100980.31;5073094;28;20107;-86
2022/09/13 10:56:52;;;;;;;2.13;1.92;;;;;;;23.37;58.60;100966.94;5043438;28;19912;-87
2022/09/13 10:59:28;;;;;;;1.98;1.45;;;;;;;23.42;58.69;100979.41;5087933;28;20595;-87
2022/09/13 11:02:13;;;;;;;;;;;;;;;23.45;58.86;100982.97;5101701;28;20556;-85
2022/09/13 11:04:55;;;;;;;1.77;1.67;;;;;;;23.46;58.54;100978.53;5089274;28;19908;-86
2022/09/13 11:07:30;;;;;;;1.80;1.70;;;;;;;23.44;58.69;100978.53;5060053;28;20020;-84
2022/09/13 11:10:06;;;;;;;1.98;1.88;;;;;;;23.46;58.67;100976.75;5079630;28;20035;-85
2022/09/13 11:12:35;;;;;;;1.63;1.52;;;;;;;23.23;58.50;100944.66;5077928;28;20024;-86
2022/09/13 11:15:17;;;;;;;1.88;1.77;;;;;;;23.50;58.68;100978.56;5080702;28;20103;-87
2022/09/13 11:17:48;;;;;;;1.70;1.60;;;;;;;23.48;58.76;100984.78;5079550;28;20024;-84
2022/09/13 11:20:26;;;;;;;2.17;2.00;;;;;;;23.50;58.74;100985.66;5081395;28;20048;-88
2022/09/13 11:23:04;;;;;;;1.98;1.85;;;;;;;23.35;58.55;100960.72;5044626;28;20089;-87
2022/09/13 11:25:50;;;;;;;3.17;2.05;;;;;;;23.72;56.57;100982.19;5073579;28;20093;-87
2022/09/13 11:28:17;;;;;;;13.93;2.70;;;;;;;23.67;57.16;100977.72;5055743;28;20059;-89
2022/09/13 11:31:19;;;;;;;10.70;2.78;;;;;;;23.60;56.92;100975.91;5098703;28;20034;-86
2022/09/13 11:34:03;;;;;;;7.15;2.17;;;;;;;23.50;57.31;100975.00;5085789;28;20466;-90
2022/09/13 11:36:49;;;;;;;7.30;2.30;;;;;;;23.45;57.82;100976.75;5095647;28;20087;-92
2022/09/13 11:39:27;;;;;;;3.92;2.40;;;;;;;23.48;57.57;100982.97;5090210;28;20039;-89
2022/09/13 11:42:08;;;;;;;3.05;2.17;;;;;;;23.41;57.70;100961.63;5103936;28;20091;-86
2022/09/13 11:44:51;;;;;;;3.83;1.90;;;;;;;23.47;58.06;100973.19;5090624;28;20028;-88
2022/09/13 11:47:20;;;;;;;3.92;2.08;;;;;;;23.53;58.12;100967.00;5123686;28;20048;-89
2022/09/13 11:50:25;;;;;;;3.78;2.50;;;;;;;23.50;57.94;100967.00;5091638;28;20028;-90
2022/09/13 11:53:09;;;;;;;4.88;2.10;;;;;;;23.52;57.93;100965.25;5056234;28;20042;-87
2022/09/13 11:55:47;;;;;;;3.00;1.83;;;;;;;23.45;57.65;100956.34;5080168;28;20016;-85
2022/09/13 11:58:17;;;;;;;3.72;2.00;;;;;;;23.50;57.96;100962.56;5080677;28;20118;-86
2022/09/13 12:00:52;;;;;;;2.67;1.63;;;;;;;23.51;57.94;100961.66;5089487;28;20023;-86